Airfield :
LOGIN :

Register | Disclaimer

   EN    FR    IT 

 










Legend :    VFR   Marginal VFR   IFR   Intensive IFR   Very Intensive IFR
Visi :
Ceiling :
>= 8 km
>= 3000ft
5 to 8 km
1000 to 3000 ft
1500m to 5 km
500 to 1000 ft
800 to 1500m
200 to 500 ft
< 800m
< 200 ft
Symbols :   Thunderstorms  Fog  Heavy snow  Heavy precipitations  Wind > 20 kt
SIGMETs :     Misc.  Thunderstorms  Icing  Turbulence  Mountain Waves  Volcanic Ashes







- Airport Elevation : 479 ft
- IATA code : DOL
- Download approach charts


LFRG - Deauville

CURRENT METAR :
  • 242200Z AUTO 27003KT 230V290 7000 NSC 05/05 Q1030

EXPIRED METARs :
  • 242130Z AUTO 25004KT 9000 NSC 05/04 Q1030
  • 242100Z AUTO 29006KT CAVOK 06/05 Q1030 TEMPO 0500 FG BECMG 02010KT
  • 242030Z AUTO 27003KT CAVOK 05/04 Q1030 TEMPO 0500 FG BECMG 02010KT
  • 242000Z AUTO 28003KT CAVOK 05/04 Q1030 BECMG 02010KT 3000 BR
  • 241930Z AUTO 30003KT CAVOK 05/03 Q1030 BECMG 02010KT 3000 BR

TAF TAF LFRG
Valid from the 24 at 15:00 until the 25 at 00:00 UTC


241400Z 2415/2424 02010KT CAVOK
BECMG 2420/2422 3000 BR
TEMPO 2422/2424 0500 FG
ATIS : +33 2 31 65 65 36
No reported NOTAMs for that airfield.



MET'MAP, your aeronautical weather chart ! - Copyright ORBIFLY December 2007 - Disclaimer

ORBIFLY MET'MAP TEAM :

Programming & Development : Alexandra Zaïnal
Concept & Development : Baudouin d'Aumeries
Co-Development & Prog : Marc-Olivier Méhu
Technical & hardware support : Manuel Goepfert

Contact : metmap@orbifly.com




SOURCES & CREDITS :

   NOAA